sensor_id;sensor_type;location;lat;lon;timestamp;P1;durP1;ratioP1;P2;durP2;ratioP2
20669;SDS011;10494;50.868;4.180;2023-02-16T00:01:14;71.07;;;36.80;;
20669;SDS011;10494;50.868;4.180;2023-02-16T00:03:42;67.40;;;36.37;;
20669;SDS011;10494;50.868;4.180;2023-02-16T00:06:09;74.07;;;37.37;;
20669;SDS011;10494;50.868;4.180;2023-02-16T00:08:40;74.63;;;36.83;;
20669;SDS011;10494;50.868;4.180;2023-02-16T00:11:12;80.63;;;40.23;;
20669;SDS011;10494;50.868;4.180;2023-02-16T00:14:10;81.37;;;38.90;;
20669;SDS011;10494;50.868;4.180;2023-02-16T00:16:36;72.23;;;38.87;;
20669;SDS011;10494;50.868;4.180;2023-02-16T00:19:16;80.17;;;39.77;;
20669;SDS011;10494;50.868;4.180;2023-02-16T00:21:45;78.07;;;38.40;;
20669;SDS011;10494;50.868;4.180;2023-02-16T00:24:12;79.83;;;37.60;;
20669;SDS011;10494;50.868;4.180;2023-02-16T00:26:37;78.70;;;37.97;;
20669;SDS011;10494;50.868;4.180;2023-02-16T00:29:04;74.20;;;37.33;;
20669;SDS011;10494;50.868;4.180;2023-02-16T00:31:30;90.10;;;40.73;;
20669;SDS011;10494;50.868;4.180;2023-02-16T00:33:56;86.00;;;39.73;;
20669;SDS011;10494;50.868;4.180;2023-02-16T00:36:21;77.97;;;39.73;;
20669;SDS011;10494;50.868;4.180;2023-02-16T00:38:47;82.13;;;39.60;;
20669;SDS011;10494;50.868;4.180;2023-02-16T00:41:20;73.73;;;38.90;;
20669;SDS011;10494;50.868;4.180;2023-02-16T00:44:17;67.63;;;35.70;;
20669;SDS011;10494;50.868;4.180;2023-02-16T00:46:45;89.03;;;40.97;;
20669;SDS011;10494;50.868;4.180;2023-02-16T00:49:18;70.67;;;38.87;;
20669;SDS011;10494;50.868;4.180;2023-02-16T00:51:45;80.33;;;39.83;;
20669;SDS011;10494;50.868;4.180;2023-02-16T00:54:12;86.57;;;42.97;;
20669;SDS011;10494;50.868;4.180;2023-02-16T00:56:37;83.33;;;40.53;;
20669;SDS011;10494;50.868;4.180;2023-02-16T00:59:04;85.10;;;42.17;;
20669;SDS011;10494;50.868;4.180;2023-02-16T01:01:33;79.43;;;40.67;;
20669;SDS011;10494;50.868;4.180;2023-02-16T01:03:59;77.87;;;38.77;;
20669;SDS011;10494;50.868;4.180;2023-02-16T01:06:26;75.23;;;39.20;;
20669;SDS011;10494;50.868;4.180;2023-02-16T01:09:12;77.50;;;39.07;;
20669;SDS011;10494;50.868;4.180;2023-02-16T01:11:59;78.83;;;38.57;;
20669;SDS011;10494;50.868;4.180;2023-02-16T01:14:26;78.60;;;38.03;;
20669;SDS011;10494;50.868;4.180;2023-02-16T01:16:51;76.80;;;40.10;;
20669;SDS011;10494;50.868;4.180;2023-02-16T01:19:17;73.87;;;37.90;;
20669;SDS011;10494;50.868;4.180;2023-02-16T01:21:43;78.47;;;39.93;;
20669;SDS011;10494;50.868;4.180;2023-02-16T01:24:08;73.43;;;38.07;;
20669;SDS011;10494;50.868;4.180;2023-02-16T01:26:36;78.43;;;38.60;;
20669;SDS011;10494;50.868;4.180;2023-02-16T01:29:04;85.93;;;38.13;;
20669;SDS011;10494;50.868;4.180;2023-02-16T01:31:30;76.23;;;38.77;;
20669;SDS011;10494;50.868;4.180;2023-02-16T01:33:56;83.37;;;40.40;;
20669;SDS011;10494;50.868;4.180;2023-02-16T01:36:23;87.80;;;40.33;;
20669;SDS011;10494;50.868;4.180;2023-02-16T01:38:53;81.10;;;39.00;;
20669;SDS011;10494;50.868;4.180;2023-02-16T01:46:35;83.63;;;40.07;;
20669;SDS011;10494;50.868;4.180;2023-02-16T01:49:14;79.87;;;39.70;;
20669;SDS011;10494;50.868;4.180;2023-02-16T01:51:47;82.20;;;40.00;;
20669;SDS011;10494;50.868;4.180;2023-02-16T01:56:55;75.37;;;37.53;;
20669;SDS011;10494;50.868;4.180;2023-02-16T02:02:19;71.43;;;37.77;;
20669;SDS011;10494;50.868;4.180;2023-02-16T02:13:13;80.63;;;40.37;;
20669;SDS011;10494;50.868;4.180;2023-02-16T02:15:43;83.70;;;40.27;;
20669;SDS011;10494;50.868;4.180;2023-02-16T02:18:09;76.20;;;38.33;;
20669;SDS011;10494;50.868;4.180;2023-02-16T02:26:35;85.13;;;42.50;;
20669;SDS011;10494;50.868;4.180;2023-02-16T02:29:41;81.53;;;40.57;;
20669;SDS011;10494;50.868;4.180;2023-02-16T02:32:12;87.23;;;41.13;;
20669;SDS011;10494;50.868;4.180;2023-02-16T02:34:58;82.03;;;41.53;;
20669;SDS011;10494;50.868;4.180;2023-02-16T02:37:48;81.00;;;41.17;;
20669;SDS011;10494;50.868;4.180;2023-02-16T02:41:02;80.93;;;40.53;;
20669;SDS011;10494;50.868;4.180;2023-02-16T02:43:45;84.23;;;40.93;;
20669;SDS011;10494;50.868;4.180;2023-02-16T02:46:20;80.93;;;39.40;;
20669;SDS011;10494;50.868;4.180;2023-02-16T02:48:56;76.27;;;39.80;;
20669;SDS011;10494;50.868;4.180;2023-02-16T02:51:22;75.40;;;38.73;;
20669;SDS011;10494;50.868;4.180;2023-02-16T02:56:45;72.73;;;38.73;;
20669;SDS011;10494;50.868;4.180;2023-02-16T02:59:33;74.07;;;37.33;;
20669;SDS011;10494;50.868;4.180;2023-02-16T03:02:19;75.00;;;38.27;;
20669;SDS011;10494;50.868;4.180;2023-02-16T03:04:47;71.47;;;37.07;;
20669;SDS011;10494;50.868;4.180;2023-02-16T03:07:14;74.13;;;39.60;;
20669;SDS011;10494;50.868;4.180;2023-02-16T03:09:41;76.20;;;38.60;;
20669;SDS011;10494;50.868;4.180;2023-02-16T03:12:07;75.53;;;38.90;;
20669;SDS011;10494;50.868;4.180;2023-02-16T03:14:54;72.57;;;38.00;;
20669;SDS011;10494;50.868;4.180;2023-02-16T03:17:25;78.03;;;38.83;;
20669;SDS011;10494;50.868;4.180;2023-02-16T03:20:16;76.13;;;38.20;;
20669;SDS011;10494;50.868;4.180;2023-02-16T03:23:01;80.00;;;38.13;;
20669;SDS011;10494;50.868;4.180;2023-02-16T03:25:48;65.63;;;35.90;;
20669;SDS011;10494;50.868;4.180;2023-02-16T03:28:34;72.47;;;38.50;;
20669;SDS011;10494;50.868;4.180;2023-02-16T03:31:22;67.93;;;36.37;;
20669;SDS011;10494;50.868;4.180;2023-02-16T03:33:52;74.67;;;38.73;;
20669;SDS011;10494;50.868;4.180;2023-02-16T03:36:20;76.80;;;39.80;;
20669;SDS011;10494;50.868;4.180;2023-02-16T03:38:47;73.83;;;38.37;;
20669;SDS011;10494;50.868;4.180;2023-02-16T03:41:13;73.53;;;38.53;;
20669;SDS011;10494;50.868;4.180;2023-02-16T03:43:39;71.03;;;36.80;;
20669;SDS011;10494;50.868;4.180;2023-02-16T03:46:04;72.13;;;38.50;;
20669;SDS011;10494;50.868;4.180;2023-02-16T03:48:30;72.43;;;36.17;;
20669;SDS011;10494;50.868;4.180;2023-02-16T03:50:55;75.23;;;39.30;;
20669;SDS011;10494;50.868;4.180;2023-02-16T03:53:21;69.70;;;36.73;;
20669;SDS011;10494;50.868;4.180;2023-02-16T03:55:47;66.77;;;36.93;;
20669;SDS011;10494;50.868;4.180;2023-02-16T03:58:17;67.13;;;35.83;;
20669;SDS011;10494;50.868;4.180;2023-02-16T04:00:44;69.40;;;35.73;;
20669;SDS011;10494;50.868;4.180;2023-02-16T04:03:10;68.50;;;35.57;;
20669;SDS011;10494;50.868;4.180;2023-02-16T04:05:36;72.57;;;37.43;;
20669;SDS011;10494;50.868;4.180;2023-02-16T04:08:02;66.73;;;35.50;;
20669;SDS011;10494;50.868;4.180;2023-02-16T04:10:28;71.10;;;36.20;;
20669;SDS011;10494;50.868;4.180;2023-02-16T04:12:53;66.13;;;35.63;;
20669;SDS011;10494;50.868;4.180;2023-02-16T04:15:21;63.23;;;35.00;;
20669;SDS011;10494;50.868;4.180;2023-02-16T04:17:47;65.70;;;34.03;;
20669;SDS011;10494;50.868;4.180;2023-02-16T04:20:14;65.13;;;33.53;;
20669;SDS011;10494;50.868;4.180;2023-02-16T04:22:43;63.17;;;33.30;;
20669;SDS011;10494;50.868;4.180;2023-02-16T04:25:09;64.13;;;33.90;;
20669;SDS011;10494;50.868;4.180;2023-02-16T04:27:36;70.40;;;35.43;;
20669;SDS011;10494;50.868;4.180;2023-02-16T04:30:03;66.07;;;34.47;;
20669;SDS011;10494;50.868;4.180;2023-02-16T04:32:30;66.47;;;34.83;;
20669;SDS011;10494;50.868;4.180;2023-02-16T04:34:56;66.77;;;34.27;;
20669;SDS011;10494;50.868;4.180;2023-02-16T04:37:21;70.97;;;36.73;;
20669;SDS011;10494;50.868;4.180;2023-02-16T04:39:47;71.03;;;36.40;;
20669;SDS011;10494;50.868;4.180;2023-02-16T04:42:12;64.57;;;35.90;;
20669;SDS011;10494;50.868;4.180;2023-02-16T04:44:38;61.17;;;34.03;;
20669;SDS011;10494;50.868;4.180;2023-02-16T04:47:04;68.03;;;33.17;;
20669;SDS011;10494;50.868;4.180;2023-02-16T04:49:29;60.57;;;33.23;;
20669;SDS011;10494;50.868;4.180;2023-02-16T04:51:55;64.80;;;35.77;;
20669;SDS011;10494;50.868;4.180;2023-02-16T04:54:21;68.73;;;36.00;;
20669;SDS011;10494;50.868;4.180;2023-02-16T04:56:47;64.00;;;34.40;;
20669;SDS011;10494;50.868;4.180;2023-02-16T04:59:13;56.90;;;32.37;;
20669;SDS011;10494;50.868;4.180;2023-02-16T05:01:40;59.90;;;33.30;;
20669;SDS011;10494;50.868;4.180;2023-02-16T05:04:06;63.83;;;34.50;;
20669;SDS011;10494;50.868;4.180;2023-02-16T05:06:36;64.00;;;35.00;;
20669;SDS011;10494;50.868;4.180;2023-02-16T05:09:02;63.87;;;34.63;;
20669;SDS011;10494;50.868;4.180;2023-02-16T05:11:28;63.23;;;34.17;;
20669;SDS011;10494;50.868;4.180;2023-02-16T05:17:08;59.50;;;32.80;;
20669;SDS011;10494;50.868;4.180;2023-02-16T05:19:34;61.27;;;32.73;;
20669;SDS011;10494;50.868;4.180;2023-02-16T05:22:00;55.63;;;31.57;;
20669;SDS011;10494;50.868;4.180;2023-02-16T05:24:25;57.87;;;32.20;;
20669;SDS011;10494;50.868;4.180;2023-02-16T05:26:52;69.70;;;32.40;;
20669;SDS011;10494;50.868;4.180;2023-02-16T05:29:18;53.70;;;31.70;;
20669;SDS011;10494;50.868;4.180;2023-02-16T05:31:43;57.33;;;31.53;;
20669;SDS011;10494;50.868;4.180;2023-02-16T05:34:09;58.77;;;32.57;;
20669;SDS011;10494;50.868;4.180;2023-02-16T05:36:34;56.67;;;30.97;;
20669;SDS011;10494;50.868;4.180;2023-02-16T05:39:00;56.67;;;32.33;;
20669;SDS011;10494;50.868;4.180;2023-02-16T05:41:26;55.97;;;30.97;;
20669;SDS011;10494;50.868;4.180;2023-02-16T05:43:52;63.37;;;32.60;;
20669;SDS011;10494;50.868;4.180;2023-02-16T05:46:20;57.37;;;32.00;;
20669;SDS011;10494;50.868;4.180;2023-02-16T05:48:46;59.87;;;32.93;;
20669;SDS011;10494;50.868;4.180;2023-02-16T05:51:12;54.93;;;31.33;;
20669;SDS011;10494;50.868;4.180;2023-02-16T05:53:38;57.03;;;33.00;;
20669;SDS011;10494;50.868;4.180;2023-02-16T05:56:04;58.93;;;32.67;;
20669;SDS011;10494;50.868;4.180;2023-02-16T05:58:30;62.57;;;34.40;;
20669;SDS011;10494;50.868;4.180;2023-02-16T06:00:56;61.57;;;32.63;;
20669;SDS011;10494;50.868;4.180;2023-02-16T06:03:22;62.03;;;32.53;;
20669;SDS011;10494;50.868;4.180;2023-02-16T06:05:54;61.90;;;32.30;;
20669;SDS011;10494;50.868;4.180;2023-02-16T06:08:22;56.23;;;31.23;;
20669;SDS011;10494;50.868;4.180;2023-02-16T06:10:48;57.33;;;31.73;;
20669;SDS011;10494;50.868;4.180;2023-02-16T06:13:15;58.77;;;32.47;;
20669;SDS011;10494;50.868;4.180;2023-02-16T06:15:41;55.03;;;31.87;;
20669;SDS011;10494;50.868;4.180;2023-02-16T06:18:07;61.47;;;31.30;;
20669;SDS011;10494;50.868;4.180;2023-02-16T06:20:35;61.80;;;32.77;;
20669;SDS011;10494;50.868;4.180;2023-02-16T06:23:01;58.73;;;31.63;;
20669;SDS011;10494;50.868;4.180;2023-02-16T06:25:26;59.70;;;31.97;;
20669;SDS011;10494;50.868;4.180;2023-02-16T06:27:52;58.27;;;30.77;;
20669;SDS011;10494;50.868;4.180;2023-02-16T06:30:19;57.03;;;31.90;;
20669;SDS011;10494;50.868;4.180;2023-02-16T06:32:45;56.27;;;30.83;;
20669;SDS011;10494;50.868;4.180;2023-02-16T06:35:10;61.87;;;31.33;;
20669;SDS011;10494;50.868;4.180;2023-02-16T06:37:36;60.17;;;32.97;;
20669;SDS011;10494;50.868;4.180;2023-02-16T06:40:01;61.23;;;32.17;;
20669;SDS011;10494;50.868;4.180;2023-02-16T06:42:27;60.40;;;31.33;;
20669;SDS011;10494;50.868;4.180;2023-02-16T06:44:53;57.60;;;31.87;;
20669;SDS011;10494;50.868;4.180;2023-02-16T06:47:18;58.60;;;32.47;;
20669;SDS011;10494;50.868;4.180;2023-02-16T06:49:44;51.57;;;29.57;;
20669;SDS011;10494;50.868;4.180;2023-02-16T06:52:09;56.80;;;31.47;;
20669;SDS011;10494;50.868;4.180;2023-02-16T06:54:35;53.30;;;30.47;;
20669;SDS011;10494;50.868;4.180;2023-02-16T06:57:00;51.83;;;28.30;;
20669;SDS011;10494;50.868;4.180;2023-02-16T06:59:26;57.73;;;31.93;;
20669;SDS011;10494;50.868;4.180;2023-02-16T07:01:51;57.53;;;30.77;;
20669;SDS011;10494;50.868;4.180;2023-02-16T07:04:17;57.40;;;32.20;;
20669;SDS011;10494;50.868;4.180;2023-02-16T07:06:43;53.20;;;30.80;;
20669;SDS011;10494;50.868;4.180;2023-02-16T07:09:08;55.37;;;31.47;;
20669;SDS011;10494;50.868;4.180;2023-02-16T07:11:34;55.00;;;30.07;;
20669;SDS011;10494;50.868;4.180;2023-02-16T07:13:59;52.57;;;29.23;;
20669;SDS011;10494;50.868;4.180;2023-02-16T07:16:25;55.80;;;29.27;;
20669;SDS011;10494;50.868;4.180;2023-02-16T07:18:51;49.80;;;29.23;;
20669;SDS011;10494;50.868;4.180;2023-02-16T07:21:16;48.13;;;27.70;;
20669;SDS011;10494;50.868;4.180;2023-02-16T07:23:42;52.13;;;29.33;;
20669;SDS011;10494;50.868;4.180;2023-02-16T07:26:07;47.60;;;27.30;;
20669;SDS011;10494;50.868;4.180;2023-02-16T07:28:33;51.37;;;29.00;;
20669;SDS011;10494;50.868;4.180;2023-02-16T07:31:04;48.60;;;28.93;;
20669;SDS011;10494;50.868;4.180;2023-02-16T07:33:31;52.37;;;29.10;;
20669;SDS011;10494;50.868;4.180;2023-02-16T07:35:57;54.27;;;28.47;;
20669;SDS011;10494;50.868;4.180;2023-02-16T07:38:22;47.27;;;28.40;;
20669;SDS011;10494;50.868;4.180;2023-02-16T07:40:48;45.50;;;27.20;;
20669;SDS011;10494;50.868;4.180;2023-02-16T07:43:13;49.90;;;28.67;;
20669;SDS011;10494;50.868;4.180;2023-02-16T07:45:39;49.20;;;27.93;;
20669;SDS011;10494;50.868;4.180;2023-02-16T07:48:06;47.73;;;28.23;;
20669;SDS011;10494;50.868;4.180;2023-02-16T07:50:31;52.90;;;28.27;;
20669;SDS011;10494;50.868;4.180;2023-02-16T07:52:59;51.73;;;28.63;;
20669;SDS011;10494;50.868;4.180;2023-02-16T07:55:26;50.97;;;28.00;;
20669;SDS011;10494;50.868;4.180;2023-02-16T07:57:52;60.63;;;29.60;;
20669;SDS011;10494;50.868;4.180;2023-02-16T08:00:20;53.17;;;29.07;;
20669;SDS011;10494;50.868;4.180;2023-02-16T08:02:47;49.27;;;27.77;;
20669;SDS011;10494;50.868;4.180;2023-02-16T08:05:12;50.00;;;28.40;;
20669;SDS011;10494;50.868;4.180;2023-02-16T08:07:38;57.13;;;27.27;;
20669;SDS011;10494;50.868;4.180;2023-02-16T08:10:05;52.57;;;27.97;;
20669;SDS011;10494;50.868;4.180;2023-02-16T08:12:31;47.57;;;28.40;;
20669;SDS011;10494;50.868;4.180;2023-02-16T08:14:56;48.28;;;27.23;;
20669;SDS011;10494;50.868;4.180;2023-02-16T08:17:22;49.70;;;27.93;;
20669;SDS011;10494;50.868;4.180;2023-02-16T08:19:48;58.17;;;27.33;;
20669;SDS011;10494;50.868;4.180;2023-02-16T08:22:15;43.30;;;26.30;;
20669;SDS011;10494;50.868;4.180;2023-02-16T08:24:41;47.50;;;27.17;;
20669;SDS011;10494;50.868;4.180;2023-02-16T08:27:07;49.33;;;28.53;;
20669;SDS011;10494;50.868;4.180;2023-02-16T08:29:33;51.80;;;29.00;;
20669;SDS011;10494;50.868;4.180;2023-02-16T08:31:59;49.80;;;27.33;;
20669;SDS011;10494;50.868;4.180;2023-02-16T08:34:28;48.80;;;27.97;;
20669;SDS011;10494;50.868;4.180;2023-02-16T08:36:55;50.17;;;27.43;;
20669;SDS011;10494;50.868;4.180;2023-02-16T08:39:22;49.77;;;26.57;;
20669;SDS011;10494;50.868;4.180;2023-02-16T08:41:50;44.57;;;26.17;;
20669;SDS011;10494;50.868;4.180;2023-02-16T08:44:17;47.70;;;27.23;;
20669;SDS011;10494;50.868;4.180;2023-02-16T08:46:44;47.27;;;28.73;;
20669;SDS011;10494;50.868;4.180;2023-02-16T08:49:11;49.17;;;27.13;;
20669;SDS011;10494;50.868;4.180;2023-02-16T08:51:43;50.70;;;27.63;;
20669;SDS011;10494;50.868;4.180;2023-02-16T08:54:15;45.73;;;27.93;;
20669;SDS011;10494;50.868;4.180;2023-02-16T08:56:46;52.00;;;28.30;;
20669;SDS011;10494;50.868;4.180;2023-02-16T08:59:14;45.60;;;27.67;;
20669;SDS011;10494;50.868;4.180;2023-02-16T09:01:41;46.77;;;28.17;;
20669;SDS011;10494;50.868;4.180;2023-02-16T09:04:07;49.83;;;28.33;;
20669;SDS011;10494;50.868;4.180;2023-02-16T09:06:35;49.83;;;27.47;;
20669;SDS011;10494;50.868;4.180;2023-02-16T09:09:06;48.67;;;28.37;;
20669;SDS011;10494;50.868;4.180;2023-02-16T09:11:33;48.17;;;28.37;;
20669;SDS011;10494;50.868;4.180;2023-02-16T09:13:59;49.13;;;29.23;;
20669;SDS011;10494;50.868;4.180;2023-02-16T09:16:24;47.40;;;27.97;;
20669;SDS011;10494;50.868;4.180;2023-02-16T09:18:53;49.10;;;29.53;;
20669;SDS011;10494;50.868;4.180;2023-02-16T09:21:20;48.23;;;28.40;;
20669;SDS011;10494;50.868;4.180;2023-02-16T09:23:49;51.30;;;28.20;;
20669;SDS011;10494;50.868;4.180;2023-02-16T09:26:18;47.33;;;28.70;;
20669;SDS011;10494;50.868;4.180;2023-02-16T09:28:46;49.77;;;28.93;;
20669;SDS011;10494;50.868;4.180;2023-02-16T09:31:13;54.93;;;29.23;;
20669;SDS011;10494;50.868;4.180;2023-02-16T09:33:49;46.63;;;27.77;;
20669;SDS011;10494;50.868;4.180;2023-02-16T09:36:16;49.67;;;28.23;;
20669;SDS011;10494;50.868;4.180;2023-02-16T09:38:42;51.27;;;28.43;;
20669;SDS011;10494;50.868;4.180;2023-02-16T09:44:02;49.57;;;29.13;;
20669;SDS011;10494;50.868;4.180;2023-02-16T09:46:36;46.93;;;26.77;;
20669;SDS011;10494;50.868;4.180;2023-02-16T09:49:04;48.87;;;28.17;;
20669;SDS011;10494;50.868;4.180;2023-02-16T09:51:32;43.13;;;26.13;;
20669;SDS011;10494;50.868;4.180;2023-02-16T09:54:18;47.60;;;26.80;;
20669;SDS011;10494;50.868;4.180;2023-02-16T09:57:04;47.43;;;26.80;;
20669;SDS011;10494;50.868;4.180;2023-02-16T10:05:34;48.17;;;26.97;;
20669;SDS011;10494;50.868;4.180;2023-02-16T10:08:15;50.00;;;26.53;;
20669;SDS011;10494;50.868;4.180;2023-02-16T10:13:25;42.25;;;26.38;;
20669;SDS011;10494;50.868;4.180;2023-02-16T10:16:04;40.83;;;24.33;;
20669;SDS011;10494;50.868;4.180;2023-02-16T10:18:39;44.22;;;25.08;;
20669;SDS011;10494;50.868;4.180;2023-02-16T10:21:12;43.17;;;25.27;;
20669;SDS011;10494;50.868;4.180;2023-02-16T10:26:31;41.92;;;24.13;;
20669;SDS011;10494;50.868;4.180;2023-02-16T10:29:07;42.10;;;24.85;;
20669;SDS011;10494;50.868;4.180;2023-02-16T10:31:39;40.92;;;23.20;;
20669;SDS011;10494;50.868;4.180;2023-02-16T10:34:34;46.58;;;24.50;;
20669;SDS011;10494;50.868;4.180;2023-02-16T10:37:24;41.25;;;24.98;;
20669;SDS011;10494;50.868;4.180;2023-02-16T10:45:53;46.03;;;24.70;;
20669;SDS011;10494;50.868;4.180;2023-02-16T10:48:22;48.92;;;25.25;;
20669;SDS011;10494;50.868;4.180;2023-02-16T10:51:08;46.70;;;24.48;;
20669;SDS011;10494;50.868;4.180;2023-02-16T10:53:39;41.95;;;24.00;;
20669;SDS011;10494;50.868;4.180;2023-02-16T10:56:25;43.10;;;24.20;;
20669;SDS011;10494;50.868;4.180;2023-02-16T10:59:18;41.45;;;24.15;;
20669;SDS011;10494;50.868;4.180;2023-02-16T11:01:53;37.85;;;23.75;;
20669;SDS011;10494;50.868;4.180;2023-02-16T11:04:32;44.72;;;25.52;;
20669;SDS011;10494;50.868;4.180;2023-02-16T11:09:32;47.60;;;26.83;;
20669;SDS011;10494;50.868;4.180;2023-02-16T11:11:59;42.35;;;24.88;;
20669;SDS011;10494;50.868;4.180;2023-02-16T11:14:27;40.42;;;23.60;;
20669;SDS011;10494;50.868;4.180;2023-02-16T11:17:09;44.70;;;25.15;;
20669;SDS011;10494;50.868;4.180;2023-02-16T11:19:46;43.20;;;25.50;;
20669;SDS011;10494;50.868;4.180;2023-02-16T11:22:23;44.45;;;24.77;;
20669;SDS011;10494;50.868;4.180;2023-02-16T11:24:56;47.67;;;25.95;;
20669;SDS011;10494;50.868;4.180;2023-02-16T11:27:51;38.35;;;24.02;;
20669;SDS011;10494;50.868;4.180;2023-02-16T11:30:33;42.88;;;24.67;;
20669;SDS011;10494;50.868;4.180;2023-02-16T11:33:19;46.30;;;26.25;;
20669;SDS011;10494;50.868;4.180;2023-02-16T11:35:47;46.58;;;26.25;;
20669;SDS011;10494;50.868;4.180;2023-02-16T11:38:27;48.25;;;26.20;;
20669;SDS011;10494;50.868;4.180;2023-02-16T11:40:55;52.85;;;27.42;;
20669;SDS011;10494;50.868;4.180;2023-02-16T11:43:22;50.08;;;28.17;;
20669;SDS011;10494;50.868;4.180;2023-02-16T11:45:56;46.47;;;26.70;;
20669;SDS011;10494;50.868;4.180;2023-02-16T11:48:30;52.63;;;27.80;;
20669;SDS011;10494;50.868;4.180;2023-02-16T11:50:58;46.53;;;26.80;;
20669;SDS011;10494;50.868;4.180;2023-02-16T11:53:30;46.20;;;27.58;;
20669;SDS011;10494;50.868;4.180;2023-02-16T11:56:08;48.92;;;25.35;;
20669;SDS011;10494;50.868;4.180;2023-02-16T11:58:44;49.40;;;26.00;;
20669;SDS011;10494;50.868;4.180;2023-02-16T12:12:14;40.75;;;24.08;;
20669;SDS011;10494;50.868;4.180;2023-02-16T12:20:24;40.90;;;24.02;;
20669;SDS011;10494;50.868;4.180;2023-02-16T12:28:19;43.80;;;26.17;;
20669;SDS011;10494;50.868;4.180;2023-02-16T12:34:22;38.35;;;22.58;;
20669;SDS011;10494;50.868;4.180;2023-02-16T12:43:28;43.05;;;22.90;;
20669;SDS011;10494;50.868;4.180;2023-02-16T12:45:21;37.45;;;21.08;;
20669;SDS011;10494;50.868;4.180;2023-02-16T12:50:41;36.38;;;20.80;;
20669;SDS011;10494;50.868;4.180;2023-02-16T12:55:40;33.63;;;20.55;;
20669;SDS011;10494;50.868;4.180;2023-02-16T13:00:50;33.30;;;21.83;;
20669;SDS011;10494;50.868;4.180;2023-02-16T13:11:16;34.28;;;21.15;;
20669;SDS011;10494;50.868;4.180;2023-02-16T13:13:57;36.05;;;21.73;;
20669;SDS011;10494;50.868;4.180;2023-02-16T13:16:37;32.88;;;20.83;;
20669;SDS011;10494;50.868;4.180;2023-02-16T13:19:10;36.33;;;19.92;;
20669;SDS011;10494;50.868;4.180;2023-02-16T13:24:52;44.72;;;21.83;;
20669;SDS011;10494;50.868;4.180;2023-02-16T13:27:46;36.90;;;21.10;;
20669;SDS011;10494;50.868;4.180;2023-02-16T13:33:23;42.25;;;22.88;;
20669;SDS011;10494;50.868;4.180;2023-02-16T13:41:44;40.58;;;21.02;;
20669;SDS011;10494;50.868;4.180;2023-02-16T13:47:06;33.97;;;20.67;;
20669;SDS011;10494;50.868;4.180;2023-02-16T13:49:42;36.38;;;19.88;;
20669;SDS011;10494;50.868;4.180;2023-02-16T13:55:07;34.00;;;20.70;;
20669;SDS011;10494;50.868;4.180;2023-02-16T14:05:50;31.02;;;19.23;;
20669;SDS011;10494;50.868;4.180;2023-02-16T14:18:53;32.45;;;16.88;;
20669;SDS011;10494;50.868;4.180;2023-02-16T14:21:38;33.33;;;16.50;;
20669;SDS011;10494;50.868;4.180;2023-02-16T14:24:10;31.13;;;16.88;;
20669;SDS011;10494;50.868;4.180;2023-02-16T14:26:55;28.70;;;16.35;;
20669;SDS011;10494;50.868;4.180;2023-02-16T14:29:33;29.27;;;16.70;;
20669;SDS011;10494;50.868;4.180;2023-02-16T14:34:38;25.40;;;15.07;;
20669;SDS011;10494;50.868;4.180;2023-02-16T14:39:41;27.73;;;16.58;;
20669;SDS011;10494;50.868;4.180;2023-02-16T14:42:15;28.85;;;16.95;;
20669;SDS011;10494;50.868;4.180;2023-02-16T14:47:50;31.17;;;15.02;;
20669;SDS011;10494;50.868;4.180;2023-02-16T14:50:29;29.58;;;15.55;;
20669;SDS011;10494;50.868;4.180;2023-02-16T14:53:15;27.88;;;15.68;;
20669;SDS011;10494;50.868;4.180;2023-02-16T14:56:11;29.17;;;15.50;;
20669;SDS011;10494;50.868;4.180;2023-02-16T14:58:59;26.90;;;15.98;;
20669;SDS011;10494;50.868;4.180;2023-02-16T15:01:51;25.08;;;16.38;;
20669;SDS011;10494;50.868;4.180;2023-02-16T15:04:26;31.88;;;17.05;;
20669;SDS011;10494;50.868;4.180;2023-02-16T15:06:52;27.05;;;16.27;;
20669;SDS011;10494;50.868;4.180;2023-02-16T15:09:21;28.48;;;16.75;;
20669;SDS011;10494;50.868;4.180;2023-02-16T15:11:51;31.42;;;16.65;;
20669;SDS011;10494;50.868;4.180;2023-02-16T15:14:45;25.17;;;16.42;;
20669;SDS011;10494;50.868;4.180;2023-02-16T15:17:29;26.63;;;15.82;;
20669;SDS011;10494;50.868;4.180;2023-02-16T15:19:56;30.85;;;15.90;;
20669;SDS011;10494;50.868;4.180;2023-02-16T15:22:31;27.05;;;16.55;;
20669;SDS011;10494;50.868;4.180;2023-02-16T15:27:27;24.45;;;15.68;;
20669;SDS011;10494;50.868;4.180;2023-02-16T15:32:49;22.55;;;15.23;;
20669;SDS011;10494;50.868;4.180;2023-02-16T15:35:22;27.73;;;15.48;;
20669;SDS011;10494;50.868;4.180;2023-02-16T15:38:01;24.10;;;15.02;;
20669;SDS011;10494;50.868;4.180;2023-02-16T15:40:37;23.42;;;14.77;;
20669;SDS011;10494;50.868;4.180;2023-02-16T15:43:46;23.75;;;15.55;;
20669;SDS011;10494;50.868;4.180;2023-02-16T15:46:00;27.55;;;16.90;;
20669;SDS011;10494;50.868;4.180;2023-02-16T15:59:21;30.30;;;17.80;;
20669;SDS011;10494;50.868;4.180;2023-02-16T16:01:47;30.45;;;17.25;;
20669;SDS011;10494;50.868;4.180;2023-02-16T16:04:20;29.77;;;17.42;;
20669;SDS011;10494;50.868;4.180;2023-02-16T16:06:48;25.02;;;15.80;;
20669;SDS011;10494;50.868;4.180;2023-02-16T16:09:25;33.00;;;16.52;;
20669;SDS011;10494;50.868;4.180;2023-02-16T16:11:59;26.42;;;17.52;;
20669;SDS011;10494;50.868;4.180;2023-02-16T16:14:29;28.52;;;17.08;;
20669;SDS011;10494;50.868;4.180;2023-02-16T16:16:58;28.75;;;17.10;;
20669;SDS011;10494;50.868;4.180;2023-02-16T16:19:32;33.13;;;18.20;;
20669;SDS011;10494;50.868;4.180;2023-02-16T16:22:02;29.15;;;18.80;;
20669;SDS011;10494;50.868;4.180;2023-02-16T16:24:49;35.08;;;18.00;;
20669;SDS011;10494;50.868;4.180;2023-02-16T16:27:25;30.60;;;17.95;;
20669;SDS011;10494;50.868;4.180;2023-02-16T16:30:06;32.63;;;18.48;;
20669;SDS011;10494;50.868;4.180;2023-02-16T16:32:41;31.63;;;18.75;;
20669;SDS011;10494;50.868;4.180;2023-02-16T16:35:17;34.47;;;19.55;;
20669;SDS011;10494;50.868;4.180;2023-02-16T16:37:50;31.48;;;18.67;;
20669;SDS011;10494;50.868;4.180;2023-02-16T16:43:04;29.35;;;18.15;;
20669;SDS011;10494;50.868;4.180;2023-02-16T16:45:50;32.40;;;17.77;;
20669;SDS011;10494;50.868;4.180;2023-02-16T16:48:42;31.20;;;17.67;;
20669;SDS011;10494;50.868;4.180;2023-02-16T16:53:57;30.70;;;17.92;;
20669;SDS011;10494;50.868;4.180;2023-02-16T16:56:28;29.60;;;17.15;;
20669;SDS011;10494;50.868;4.180;2023-02-16T16:58:56;30.15;;;17.92;;
20669;SDS011;10494;50.868;4.180;2023-02-16T17:01:23;30.33;;;17.92;;
20669;SDS011;10494;50.868;4.180;2023-02-16T17:03:50;33.05;;;19.15;;
20669;SDS011;10494;50.868;4.180;2023-02-16T17:06:16;30.20;;;17.33;;
20669;SDS011;10494;50.868;4.180;2023-02-16T17:08:43;29.55;;;17.73;;
20669;SDS011;10494;50.868;4.180;2023-02-16T17:11:31;32.60;;;17.77;;
20669;SDS011;10494;50.868;4.180;2023-02-16T17:14:17;30.63;;;17.73;;
20669;SDS011;10494;50.868;4.180;2023-02-16T17:16:46;34.55;;;16.98;;
20669;SDS011;10494;50.868;4.180;2023-02-16T17:19:15;29.50;;;17.55;;
20669;SDS011;10494;50.868;4.180;2023-02-16T17:21:42;30.00;;;17.10;;
20669;SDS011;10494;50.868;4.180;2023-02-16T17:24:09;25.55;;;16.23;;
20669;SDS011;10494;50.868;4.180;2023-02-16T17:26:35;28.35;;;16.90;;
20669;SDS011;10494;50.868;4.180;2023-02-16T17:29:01;27.58;;;17.52;;
20669;SDS011;10494;50.868;4.180;2023-02-16T17:31:28;28.50;;;16.52;;